Weather History for Galesburg, IL

Change the Weather History Date:

Wednesday, February 20, 2013

  Actual Average Record
Temperature  
Mean Temperature 10 °F -  
Max Temperature 19 °F 40 °F 64 °F (1983)
Min Temperature 2 °F 22 °F -3 °F (1958)
Degree Days  
Heating Degree Days 54    
Moisture  
Dew Point 6 °F    
Average Humidity 76    
Maximum Humidity 84    
Minimum Humidity 67    
Precipitation  
Precipitation 0.00 in - - ()
Sea Level Pressure  
Sea Level Pressure 30.35 in    
Wind  
Wind Speed 8 mph (NNW)    
Max Wind Speed 14 mph    
Max Gust Speed -    
Visibility 10 miles    
Events      
Averages and records for this station are not official NWS values.
T = Trace of Precipitation, MM = Missing Value Source: NWS Daily Summary

Daily Weather History Graph

Daily Weather History Graph

Search for Another Location

Airport:

Trip Planner

Search our weather history database for the weather conditions in past years. The results will help you decide how hot, cold, wet, or windy it might be!

Date:

Astronomy

Feb. 20, 2013 Rise Set
Actual Time 6:48 AM CST 5:42 PM CST
Civil Twilight 6:20 AM CST 6:10 PM CST
Nautical Twilight 5:48 AM CST 6:42 PM CST
Astronomical Twilight 5:17 AM CST 7:14 PM CST
Moon 1:02 PM CST 3:10 AM CST
Length of Visible Light 11h 49m
Length of Day
10h 53m
Waxing Gibbous, 76% of the Moon is Illuminated
Feb 20
Waxing Gibbous
Feb 25
Full
Mar 4
Last Quarter
Mar 11
New
Mar 19
First Quarter

Hourly Weather History & Observations

Time (CST) Temp. Windchill Dew Point Humidity Pressure Visibility Wind Dir Wind Speed Gust Speed Precip Events Conditions
12:15 AM 9.5 °F -5.9 °F 3.7 °F 77% 30.28 in 10.0 mi NNW 12.7 mph - N/A   Clear
12:35 AM 8.4 °F -7.9 °F 2.1 °F 76% 30.28 in 10.0 mi NNW 13.8 mph - N/A   Clear
12:55 AM 7.7 °F -6.6 °F 1.9 °F 77% 30.29 in 10.0 mi NW 10.4 mph - N/A   Clear
1:15 AM 6.8 °F -6.9 °F 1.2 °F 78% 30.31 in 10.0 mi NW 9.2 mph - N/A   Clear
1:35 AM 6.6 °F -8.0 °F 1.2 °F 79% 30.32 in 10.0 mi NW 10.4 mph - N/A   Clear
1:55 AM 6.4 °F -7.3 °F -0.0 °F 75% 30.32 in 10.0 mi NW 9.2 mph - N/A   Clear
2:15 AM 5.9 °F -8.0 °F -0.6 °F 75% 30.32 in 10.0 mi NW 9.2 mph - N/A   Clear
2:35 AM 5.5 °F -10.2 °F -1.3 °F 73% 30.32 in 10.0 mi NW 11.5 mph - N/A   Clear
2:55 AM 4.8 °F -7.1 °F -1.1 °F 76% 30.34 in 10.0 mi WNW 6.9 mph - N/A   Clear
3:15 AM 4.6 °F -9.5 °F -1.3 °F 76% 30.34 in 10.0 mi NW 9.2 mph - N/A   Clear
3:35 AM 4.5 °F -9.8 °F -1.3 °F 77% 30.34 in 10.0 mi NW 9.2 mph - N/A   Clear
3:55 AM 4.5 °F -9.8 °F -1.3 °F 77% 30.34 in 10.0 mi NW 9.2 mph - N/A   Clear
4:15 AM 4.1 °F -9.2 °F -1.7 °F 77% 30.34 in 10.0 mi NW 8.1 mph - N/A   Clear
4:35 AM 3.9 °F -8.2 °F -2.0 °F 76% 30.34 in 10.0 mi NW 6.9 mph - N/A   Clear
4:55 AM 3.2 °F -7.8 °F -2.2 °F 78% 30.34 in 10.0 mi NW 5.8 mph - N/A   Clear
5:15 AM 3.6 °F -8.7 °F -1.8 °F 78% 30.34 in 10.0 mi NW 6.9 mph - N/A   Clear
5:35 AM 3.2 °F -9.1 °F -1.8 °F 80% 30.33 in 10.0 mi NW 6.9 mph - N/A   Clear
6:15 AM 3.2 °F -9.1 °F -2.0 °F 79% 30.33 in 10.0 mi NNW 6.9 mph - N/A   Clear
6:35 AM 3.2 °F -10.3 °F -2.2 °F 78% 30.34 in 10.0 mi NNW 8.1 mph - N/A   Clear
6:55 AM 2.7 °F - -2.2 °F 80% 30.35 in 10.0 mi Calm Calm - N/A   Clear
7:15 AM 2.5 °F -7.0 °F -2.4 °F 80% 30.36 in 10.0 mi West 4.6 mph - N/A   Clear
7:35 AM 3.2 °F -6.2 °F -2.0 °F 79% 30.38 in 10.0 mi WNW 4.6 mph - N/A   Clear
7:55 AM 4.5 °F -6.3 °F -1.3 °F 77% 30.38 in 10.0 mi WNW 5.8 mph - N/A   Clear
8:15 AM 5.4 °F -7.6 °F -1.3 °F 74% 30.38 in 10.0 mi NW 8.1 mph - N/A   Clear
8:35 AM 6.4 °F -5.2 °F -0.4 °F 74% 30.39 in 10.0 mi WNW 6.9 mph - N/A   Clear
8:55 AM 7.2 °F -4.3 °F -0.0 °F 72% 30.38 in 10.0 mi NW 6.9 mph - N/A   Clear
9:15 AM 8.1 °F -2.0 °F 1.0 °F 73% 30.39 in 10.0 mi NNW 5.8 mph - N/A   Clear
9:35 AM 9.5 °F -1.5 °F 2.1 °F 72% 30.39 in 10.0 mi NNW 6.9 mph - N/A   Clear
9:55 AM 10.2 °F 0.6 °F 2.5 °F 71% 30.39 in 10.0 mi NW 5.8 mph - N/A   Clear
10:15 AM 11.1 °F 1.7 °F 2.8 °F 69% 30.40 in 10.0 mi West 5.8 mph - N/A   Clear
10:35 AM 11.7 °F 1.1 °F 3.6 °F 70% 30.40 in 10.0 mi West 6.9 mph - N/A   Clear
10:55 AM 12.2 °F 2.9 °F 5.0 °F 73% 30.40 in 10.0 mi West 5.8 mph - N/A   Clear
11:15 AM 13.6 °F 3.5 °F 6.1 °F 72% 30.42 in 10.0 mi West 6.9 mph - N/A   Clear
11:35 AM 14.0 °F 2.9 °F 6.4 °F 72% 30.42 in 10.0 mi West 8.1 mph - N/A   Clear
11:55 AM 15.3 °F 5.4 °F 7.5 °F 71% 30.42 in 10.0 mi West 6.9 mph - N/A   Clear
12:15 PM 16.0 °F 6.3 °F 8.1 °F 71% 30.41 in 10.0 mi West 6.9 mph - N/A   Clear
12:35 PM 16.3 °F 5.7 °F 8.6 °F 72% 30.40 in 10.0 mi WNW 8.1 mph - N/A   Clear
12:55 PM 16.7 °F 6.2 °F 8.6 °F 70% 30.39 in 10.0 mi West 8.1 mph - N/A   Clear
1:15 PM 17.1 °F 5.8 °F 7.7 °F 67% 30.38 in 10.0 mi WNW 9.2 mph - N/A   Clear
1:35 PM 17.6 °F 8.2 °F 8.2 °F 67% 30.37 in 10.0 mi WNW 6.9 mph - N/A   Clear
1:55 PM 17.6 °F 6.4 °F 8.6 °F 68% 30.35 in 10.0 mi NNW 9.2 mph - N/A   Clear
2:15 PM 18.3 °F 9.1 °F 9.9 °F 70% 30.35 in 10.0 mi NNW 6.9 mph - N/A   Clear
2:35 PM 18.7 °F 10.6 °F 10.2 °F 70% 30.34 in 10.0 mi North 5.8 mph - N/A   Clear
2:55 PM 18.9 °F 10.8 °F 10.2 °F 69% 30.33 in 10.0 mi North 5.8 mph - N/A   Clear
3:15 PM 19.0 °F 10.0 °F 10.4 °F 69% 30.33 in 10.0 mi NNW 6.9 mph - N/A   Clear
3:35 PM 19.8 °F 11.9 °F 11.1 °F 69% 30.34 in 10.0 mi NW 5.8 mph - N/A   Clear
3:55 PM 19.8 °F 14.7 °F 10.8 °F 68% 30.35 in 10.0 mi NNW 3.5 mph - N/A   Clear
4:15 PM 19.9 °F 14.9 °F 11.1 °F 69% 30.35 in 10.0 mi West 3.5 mph - N/A   Clear
4:35 PM 19.6 °F - 10.9 °F 69% 30.34 in 10.0 mi Calm Calm - N/A   Clear
4:55 PM 18.9 °F 12.1 °F 11.3 °F 72% 30.34 in 10.0 mi North 4.6 mph - N/A   Clear
5:15 PM 18.9 °F 12.1 °F 11.5 °F 73% 30.34 in 10.0 mi North 4.6 mph - N/A   Clear
5:35 PM 18.5 °F - 12.0 °F 76% 30.34 in 10.0 mi Calm Calm - N/A   Clear
5:55 PM 16.7 °F 11.2 °F 12.2 °F 82% 30.33 in 10.0 mi NNE 3.5 mph - N/A   Clear
6:15 PM 16.3 °F - 11.5 °F 81% 30.33 in 10.0 mi Calm Calm - N/A   Clear
6:35 PM 16.3 °F 9.2 °F 11.7 °F 82% 30.32 in 10.0 mi NE 4.6 mph - N/A   Clear
6:55 PM 15.8 °F 8.6 °F 11.7 °F 84% 30.32 in 10.0 mi NE 4.6 mph - N/A   Clear
7:15 PM 15.8 °F 10.2 °F 11.3 °F 82% 30.32 in 10.0 mi NE 3.5 mph - N/A   Clear
7:35 PM 16.2 °F 10.6 °F 11.1 °F 81% 30.33 in 10.0 mi ENE 3.5 mph - N/A   Clear
7:55 PM 15.8 °F 8.6 °F 11.1 °F 82% 30.32 in 10.0 mi ENE 4.6 mph - N/A   Clear
8:15 PM 15.6 °F 8.3 °F 10.9 °F 82% 30.32 in 10.0 mi ENE 4.6 mph - N/A   Clear
8:35 PM 16.0 °F 7.4 °F 11.1 °F 81% 30.32 in 10.0 mi ENE 5.8 mph - N/A   Clear
8:55 PM 16.2 °F 10.6 °F 11.7 °F 82% 30.32 in 10.0 mi East 3.5 mph - N/A   Clear
9:15 PM 15.8 °F 10.2 °F 11.7 °F 84% 30.33 in 10.0 mi East 3.5 mph - N/A   Clear
9:35 PM 16.7 °F 8.3 °F 12.2 °F 82% 30.34 in 10.0 mi ENE 5.8 mph - N/A   Clear
9:55 PM 17.1 °F 10.0 °F 12.2 °F 81% 30.35 in 10.0 mi East 4.6 mph - N/A   Clear
10:15 PM 17.2 °F 6.0 °F 12.6 °F 82% 30.35 in 10.0 mi ENE 9.2 mph - N/A   Clear
10:35 PM 17.2 °F 8.9 °F 12.4 °F 81% 30.36 in 10.0 mi ENE 5.8 mph - N/A   Clear
10:55 PM 17.4 °F 9.1 °F 12.2 °F 80% 30.36 in 10.0 mi ENE 5.8 mph - N/A   Clear
11:15 PM 17.4 °F 9.1 °F 12.0 °F 79% 30.35 in 10.0 mi ENE 5.8 mph - N/A   Clear
11:35 PM 16.7 °F 7.2 °F 11.8 °F 81% 30.35 in 10.0 mi ENE 6.9 mph - N/A   Clear
11:55 PM 16.5 °F 6.9 °F 11.8 °F 82% 30.34 in 10.0 mi ENE 6.9 mph - N/A   Clear